Time;durP1;ratioP1;P1;durP2;ratioP2;P2;SDS_P1;SDS_P2;PMS_P1;PMS_P2;Temp;Humidity;BMP_temperature;BMP_pressure;BME280_temperature;BME280_humidity;BME280_pressure;Samples;Min_cycle;Max_cycle;Signal;HPM_P1;HPM_P2
2022/04/03 00:01:38;;;;;;;;;;;22.20;48.10;;;;;;5078745;28;956;-39
2022/04/03 00:04:05;;;;;;;;;;;22.20;48.10;;;;;;5079645;28;941;-38
2022/04/03 00:06:33;;;;;;;;;;;22.20;48.20;;;;;;5079541;28;957;-38
2022/04/03 00:09:01;;;;;;;;;;;22.20;48.20;;;;;;5079044;28;1991;-39
2022/04/03 00:11:28;;;;;;;;;;;22.20;48.10;;;;;;5078203;28;1009;-38
2022/04/03 00:13:55;;;;;;;;;;;22.20;48.10;;;;;;5078495;28;960;-38
2022/04/03 00:16:22;;;;;;;;;;;22.20;48.10;;;;;;5078309;28;948;-40
2022/04/03 00:18:49;;;;;;;;;;;22.20;48.10;;;;;;5077418;28;952;-38
2022/04/03 00:21:16;;;;;;;;;;;22.20;48.10;;;;;;5078252;28;1030;-39
2022/04/03 00:23:44;;;;;;;;;;;22.20;48.10;;;;;;5078005;28;1012;-38
2022/04/03 00:26:11;;;;;;;;;;;22.20;48.20;;;;;;5077764;28;1005;-39
2022/04/03 00:28:38;;;;;;;;;;;22.20;48.20;;;;;;5078149;28;1979;-39
2022/04/03 00:31:05;;;;;;;;;;;22.20;48.20;;;;;;5078825;28;1026;-38
2022/04/03 00:33:32;;;;;;;;;;;22.20;48.10;;;;;;5078874;28;991;-39
2022/04/03 00:35:58;;;;;;;;;;;22.10;48.10;;;;;;5078155;28;862;-38
2022/04/03 00:38:25;;;;;;;;;;;22.20;48.10;;;;;;5077875;28;1011;-38
2022/04/03 00:40:53;;;;;;;;;;;22.10;48.10;;;;;;5077154;28;943;-39
2022/04/03 00:43:20;;;;;;;;;;;22.10;48.20;;;;;;5077875;28;1118;-37
2022/04/03 00:45:47;;;;;;;;;;;22.10;48.10;;;;;;5077836;28;1005;-39
2022/04/03 00:48:15;;;;;;;;;;;22.10;48.10;;;;;;5078140;28;1898;-39
2022/04/03 00:50:42;;;;;;;;;;;22.10;48.20;;;;;;5078232;28;985;-38
2022/04/03 00:53:09;;;;;;;;;;;22.10;48.10;;;;;;5079033;28;1042;-38
2022/04/03 00:55:35;;;;;;;;;;;22.20;48.20;;;;;;5079081;28;1004;-38
2022/04/03 00:58:03;;;;;;;;;;;22.20;48.10;;;;;;5078177;28;928;-38
2022/04/03 01:00:30;;;;;;;;;;;22.10;48.00;;;;;;5078032;28;940;-39
2022/04/03 01:02:57;;;;;;;;;;;22.20;48.00;;;;;;5078912;28;962;-38
2022/04/03 01:05:24;;;;;;;;;;;22.10;48.10;;;;;;5078459;28;952;-38
2022/04/03 01:07:51;;;;;;;;;;;22.10;48.10;;;;;;5078124;28;1040;-38
2022/04/03 01:10:17;;;;;;;;;;;22.10;48.00;;;;;;5077649;28;1898;-38
2022/04/03 01:12:45;;;;;;;;;;;22.10;48.00;;;;;;5077881;28;1021;-39
2022/04/03 01:15:15;;;;;;;;;;;22.10;48.00;;;;;;5078123;28;1015;-38
2022/04/03 01:17:42;;;;;;;;;;;22.10;48.00;;;;;;5078802;28;944;-39
2022/04/03 01:20:10;;;;;;;;;;;22.10;48.00;;;;;;5078053;28;950;-38
2022/04/03 01:22:36;;;;;;;;;;;22.10;48.00;;;;;;5078094;28;1006;-38
2022/04/03 01:25:05;;;;;;;;;;;22.10;48.10;;;;;;5078154;28;892;-39
2022/04/03 01:27:32;;;;;;;;;;;22.00;48.00;;;;;;5078119;28;1008;-38
2022/04/03 01:29:59;;;;;;;;;;;22.10;48.00;;;;;;5078044;28;1981;-40
2022/04/03 01:32:25;;;;;;;;;;;22.10;48.00;;;;;;5078060;28;1009;-38
2022/04/03 01:34:52;;;;;;;;;;;22.10;48.00;;;;;;5078243;28;1027;-42
2022/04/03 01:37:19;;;;;;;;;;;22.00;48.00;;;;;;5077704;28;947;-38
2022/04/03 01:39:45;;;;;;;;;;;22.00;48.00;;;;;;5077788;28;885;-40
2022/04/03 01:42:13;;;;;;;;;;;22.10;48.10;;;;;;5077516;28;1116;-41
2022/04/03 01:44:40;;;;;;;;;;;22.10;48.00;;;;;;5077695;28;1278;-35
2022/04/03 01:47:07;;;;;;;;;;;22.10;48.00;;;;;;5077138;28;948;-39
2022/04/03 01:49:33;;;;;;;;;;;22.10;48.00;;;;;;5077483;28;1911;-38
2022/04/03 01:52:00;;;;;;;;;;;22.00;48.00;;;;;;5077114;28;973;-38
2022/04/03 01:54:27;;;;;;;;;;;22.00;48.00;;;;;;5077658;28;1124;-39
2022/04/03 01:56:54;;;;;;;;;;;22.00;48.00;;;;;;5077288;28;1029;-39
2022/04/03 01:59:22;;;;;;;;;;;22.00;48.00;;;;;;5078742;28;967;-37
2022/04/03 02:01:49;;;;;;;;;;;22.00;48.00;;;;;;5077834;28;1022;-38
2022/04/03 02:04:15;;;;;;;;;;;22.00;48.00;;;;;;5078206;28;1008;-38
2022/04/03 02:06:42;;;;;;;;;;;22.00;48.00;;;;;;5077631;28;1009;-39
2022/04/03 02:09:09;;;;;;;;;;;22.00;48.00;;;;;;5077618;28;1906;-38
2022/04/03 02:11:36;;;;;;;;;;;22.00;48.00;;;;;;5077507;28;1031;-39
2022/04/03 02:14:02;;;;;;;;;;;22.00;48.00;;;;;;5078478;28;928;-38
2022/04/03 02:16:31;;;;;;;;;;;21.90;47.90;;;;;;5077133;28;969;-38
2022/04/03 02:18:57;;;;;;;;;;;22.00;48.00;;;;;;5076897;28;1012;-38
2022/04/03 02:21:24;;;;;;;;;;;22.00;48.00;;;;;;5075577;28;878;-38
2022/04/03 02:23:51;;;;;;;;;;;21.90;48.00;;;;;;5076697;28;962;-39
2022/04/03 02:26:19;;;;;;;;;;;21.90;48.00;;;;;;5078882;28;940;-39
2022/04/03 02:28:45;;;;;;;;;;;21.90;48.00;;;;;;5080283;28;1973;-39
2022/04/03 02:31:12;;;;;;;;;;;21.90;48.00;;;;;;5080403;28;1012;-37
2022/04/03 02:37:03;;;;;;;;;;;21.90;48.00;;;;;;5080854;28;674;-37
2022/04/03 02:39:33;;;;;;;;;;;21.90;47.90;;;;;;5081544;28;874;-37
2022/04/03 02:42:01;;;;;;;;;;;21.90;48.00;;;;;;5080348;28;1003;-37
2022/04/03 02:44:27;;;;;;;;;;;21.90;48.00;;;;;;5080396;28;1121;-38
2022/04/03 02:46:54;;;;;;;;;;;21.90;48.00;;;;;;5080154;28;985;-40
2022/04/03 02:49:21;;;;;;;;;;;21.90;48.00;;;;;;5080495;28;1901;-37
2022/04/03 02:51:48;;;;;;;;;;;21.90;48.00;;;;;;5080282;28;845;-37
2022/04/03 02:54:16;;;;;;;;;;;21.90;48.00;;;;;;5080284;28;977;-38
2022/04/03 02:56:43;;;;;;;;;;;21.90;48.00;;;;;;5080315;28;1036;-37
2022/04/03 02:59:09;;;;;;;;;;;21.90;47.90;;;;;;5080709;28;1423;-38
2022/04/03 03:01:36;;;;;;;;;;;21.90;48.00;;;;;;5080101;28;1018;-37
2022/04/03 03:04:03;;;;;;;;;;;21.90;47.90;;;;;;5080585;28;989;-38
2022/04/03 03:06:30;;;;;;;;;;;21.90;48.00;;;;;;5080334;28;1138;-38
2022/04/03 03:08:56;;;;;;;;;;;21.90;48.00;;;;;;5080593;28;991;-39
2022/04/03 03:11:24;;;;;;;;;;;21.80;47.90;;;;;;5079761;28;1067;-37
2022/04/03 03:13:51;;;;;;;;;;;21.90;48.00;;;;;;5080339;28;995;-37
2022/04/03 03:16:18;;;;;;;;;;;21.90;47.90;;;;;;5079903;28;995;-37
2022/04/03 03:18:44;;;;;;;;;;;21.90;47.90;;;;;;5079199;28;1000;-38
2022/04/03 03:21:11;;;;;;;;;;;21.80;47.90;;;;;;5079253;28;958;-37
2022/04/03 03:23:40;;;;;;;;;;;21.80;47.90;;;;;;5079974;28;932;-40
2022/04/03 03:26:06;;;;;;;;;;;21.80;47.90;;;;;;5079799;28;1027;-38
2022/04/03 03:28:34;;;;;;;;;;;21.80;47.90;;;;;;5080108;28;1074;-37
2022/04/03 03:31:01;;;;;;;;;;;21.80;47.90;;;;;;5079533;28;1906;-38
2022/04/03 03:33:28;;;;;;;;;;;21.90;47.90;;;;;;5080350;28;999;-38
2022/04/03 03:35:55;;;;;;;;;;;21.80;47.90;;;;;;5079340;28;952;-39
2022/04/03 03:38:22;;;;;;;;;;;21.80;47.80;;;;;;5079701;28;1022;-37
2022/04/03 03:40:49;;;;;;;;;;;21.80;47.90;;;;;;5079446;28;1000;-38
2022/04/03 03:43:15;;;;;;;;;;;21.80;47.90;;;;;;5079473;28;1142;-38
2022/04/03 03:45:43;;;;;;;;;;;21.80;47.90;;;;;;5079357;28;1469;-36
2022/04/03 03:48:11;;;;;;;;;;;21.80;47.80;;;;;;5079779;28;990;-37
2022/04/03 03:50:38;;;;;;;;;;;21.80;47.80;;;;;;5079661;28;1995;-38
2022/04/03 03:53:05;;;;;;;;;;;21.70;47.80;;;;;;5080333;28;1088;-38
2022/04/03 03:55:31;;;;;;;;;;;21.80;47.90;;;;;;5080875;28;913;-37
2022/04/03 03:57:58;;;;;;;;;;;21.80;47.80;;;;;;5080327;28;1058;-37
2022/04/03 04:00:25;;;;;;;;;;;21.80;47.70;;;;;;5079760;28;1126;-37
2022/04/03 04:02:53;;;;;;;;;;;21.80;47.80;;;;;;5079794;28;892;-38
2022/04/03 04:05:20;;;;;;;;;;;21.80;47.90;;;;;;5079631;28;1055;-39
2022/04/03 04:07:47;;;;;;;;;;;21.80;47.80;;;;;;5080051;28;1010;-37
2022/04/03 04:10:14;;;;;;;;;;;21.80;47.80;;;;;;5079958;28;1975;-38
2022/04/03 04:12:41;;;;;;;;;;;21.70;47.80;;;;;;5080121;28;1013;-39
2022/04/03 04:15:08;;;;;;;;;;;21.80;47.80;;;;;;5079885;28;985;-37
2022/04/03 04:17:35;;;;;;;;;;;21.80;47.80;;;;;;5080155;28;951;-38
2022/04/03 04:20:04;;;;;;;;;;;21.80;47.80;;;;;;5078582;28;1020;-38
2022/04/03 04:22:31;;;;;;;;;;;21.80;47.80;;;;;;5078844;28;1027;-38
2022/04/03 04:24:57;;;;;;;;;;;21.80;47.80;;;;;;5080368;28;1794;-38
2022/04/03 04:27:24;;;;;;;;;;;21.80;47.80;;;;;;5079390;28;959;-38
2022/04/03 04:29:51;;;;;;;;;;;21.70;47.80;;;;;;5079646;28;1902;-37
2022/04/03 04:32:21;;;;;;;;;;;21.70;47.80;;;;;;5079583;28;1016;-38
2022/04/03 04:34:48;;;;;;;;;;;21.70;47.80;;;;;;5079202;28;976;-38
2022/04/03 04:37:17;;;;;;;;;;;21.60;47.80;;;;;;5079652;28;978;-38
2022/04/03 04:39:43;;;;;;;;;;;21.70;47.70;;;;;;5079231;28;916;-37
2022/04/03 04:42:10;;;;;;;;;;;21.70;47.80;;;;;;5078676;28;1006;-38
2022/04/03 04:44:37;;;;;;;;;;;21.70;47.80;;;;;;5077875;28;1250;-37
2022/04/03 04:47:03;;;;;;;;;;;21.70;47.80;;;;;;5078513;28;999;-37
2022/04/03 04:49:30;;;;;;;;;;;21.70;47.80;;;;;;5077903;28;1977;-38
2022/04/03 04:51:57;;;;;;;;;;;21.70;47.80;;;;;;5079025;28;936;-37
2022/04/03 04:54:26;;;;;;;;;;;21.70;47.80;;;;;;5079359;28;1003;-37
2022/04/03 04:56:53;;;;;;;;;;;21.70;47.80;;;;;;5079116;28;961;-37
2022/04/03 04:59:20;;;;;;;;;;;21.60;47.80;;;;;;5079289;28;1130;-38
2022/04/03 05:01:47;;;;;;;;;;;21.70;47.80;;;;;;5078490;28;1008;-37
2022/04/03 05:04:13;;;;;;;;;;;21.70;47.80;;;;;;5078781;28;966;-37
2022/04/03 05:06:40;;;;;;;;;;;21.70;47.80;;;;;;5077840;28;936;-40
2022/04/03 05:09:07;;;;;;;;;;;21.70;47.70;;;;;;5078690;28;1110;-38
2022/04/03 05:11:37;;;;;;;;;;;21.70;47.80;;;;;;5078121;28;1902;-37
2022/04/03 05:14:04;;;;;;;;;;;21.60;47.70;;;;;;5079372;28;977;-37
2022/04/03 05:16:31;;;;;;;;;;;21.60;47.80;;;;;;5078651;28;992;-38
2022/04/03 05:18:58;;;;;;;;;;;21.60;47.80;;;;;;5078689;28;978;-37
2022/04/03 05:21:25;;;;;;;;;;;21.60;47.80;;;;;;5077634;28;1013;-37
2022/04/03 05:23:52;;;;;;;;;;;21.70;47.70;;;;;;5077691;28;1805;-37
2022/04/03 05:26:19;;;;;;;;;;;21.60;47.70;;;;;;5078363;28;897;-38
2022/04/03 05:28:48;;;;;;;;;;;21.60;47.80;;;;;;5078084;28;986;-41
2022/04/03 05:31:14;;;;;;;;;;;21.60;47.80;;;;;;5078153;28;1983;-37
2022/04/03 05:33:42;;;;;;;;;;;21.60;47.80;;;;;;5079160;28;991;-37
2022/04/03 05:36:08;;;;;;;;;;;21.60;47.70;;;;;;5077639;28;865;-38
2022/04/03 05:38:35;;;;;;;;;;;21.60;47.80;;;;;;5078000;28;953;-37
2022/04/03 05:41:01;;;;;;;;;;;21.60;47.70;;;;;;5076337;28;932;-37
2022/04/03 05:43:28;;;;;;;;;;;21.60;47.70;;;;;;5076603;28;1245;-37
2022/04/03 05:45:56;;;;;;;;;;;21.60;47.70;;;;;;5077158;28;984;-37
2022/04/03 05:48:23;;;;;;;;;;;21.60;47.70;;;;;;5077585;28;940;-37
2022/04/03 05:50:50;;;;;;;;;;;21.60;47.70;;;;;;5076933;28;1981;-38
2022/04/03 05:53:17;;;;;;;;;;;21.60;47.80;;;;;;5076243;28;961;-37
2022/04/03 05:55:44;;;;;;;;;;;21.50;47.70;;;;;;5076957;28;971;-37
2022/04/03 05:58:11;;;;;;;;;;;21.50;47.60;;;;;;5076703;28;980;-40
2022/04/03 06:00:38;;;;;;;;;;;21.60;47.50;;;;;;5075794;28;969;-37
2022/04/03 06:03:06;;;;;;;;;;;21.50;47.70;;;;;;5075697;28;1000;-37
2022/04/03 06:05:34;;;;;;;;;;;21.50;47.60;;;;;;5076025;28;972;-37
2022/04/03 06:08:01;;;;;;;;;;;21.50;47.60;;;;;;5076178;28;937;-37
2022/04/03 06:10:28;;;;;;;;;;;21.50;47.70;;;;;;5077216;28;1979;-39
2022/04/03 06:12:55;;;;;;;;;;;21.50;47.70;;;;;;5076991;28;977;-38
2022/04/03 06:15:22;;;;;;;;;;;21.50;47.70;;;;;;5077217;28;917;-37
2022/04/03 06:17:49;;;;;;;;;;;21.50;47.60;;;;;;5076798;28;992;-39
2022/04/03 06:20:18;;;;;;;;;;;21.50;47.50;;;;;;5075995;28;1027;-37
2022/04/03 06:22:45;;;;;;;;;;;21.50;47.40;;;;;;5075799;28;1623;-38
2022/04/03 06:25:12;;;;;;;;;;;21.50;47.40;;;;;;5076206;28;1004;-37
2022/04/03 06:27:39;;;;;;;;;;;21.50;47.50;;;;;;5076561;28;993;-37
2022/04/03 06:30:06;;;;;;;;;;;21.50;47.50;;;;;;5075677;28;1919;-40
2022/04/03 06:32:33;;;;;;;;;;;21.50;47.40;;;;;;5075908;28;989;-38
2022/04/03 06:35:00;;;;;;;;;;;21.40;47.60;;;;;;5076657;28;977;-38
2022/04/03 06:37:28;;;;;;;;;;;21.40;47.50;;;;;;5076034;28;985;-38
2022/04/03 06:39:55;;;;;;;;;;;21.40;47.50;;;;;;5076117;28;897;-38
2022/04/03 06:42:21;;;;;;;;;;;21.50;47.50;;;;;;5076505;28;1085;-37
2022/04/03 06:44:48;;;;;;;;;;;21.50;47.50;;;;;;5076770;28;1096;-37
2022/04/03 06:47:15;;;;;;;;;;;21.50;47.50;;;;;;5076832;28;1016;-37
2022/04/03 06:49:41;;;;;;;;;;;21.50;47.50;;;;;;5076455;28;1221;-37
2022/04/03 06:52:09;;;;;;;;;;;21.50;47.40;;;;;;5076831;28;2200;-37
2022/04/03 06:54:37;;;;;;;;;;;21.50;47.40;;;;;;5077263;28;933;-38
2022/04/03 06:57:04;;;;;;;;;;;21.50;47.30;;;;;;5076868;28;947;-37
2022/04/03 06:59:31;;;;;;;;;;;21.50;47.40;;;;;;5077266;28;937;-37
2022/04/03 07:01:57;;;;;;;;;;;21.50;47.50;;;;;;5076394;28;1007;-36
2022/04/03 07:04:24;;;;;;;;;;;21.50;47.50;;;;;;5077284;28;998;-37
2022/04/03 07:06:51;;;;;;;;;;;21.50;47.50;;;;;;5076400;28;1007;-37
2022/04/03 07:09:18;;;;;;;;;;;21.40;47.50;;;;;;5076957;28;1101;-38
2022/04/03 07:11:46;;;;;;;;;;;21.40;47.50;;;;;;5077470;28;2283;-38
2022/04/03 07:14:12;;;;;;;;;;;21.40;47.50;;;;;;5080106;28;1016;-37
2022/04/03 07:16:40;;;;;;;;;;;21.50;47.50;;;;;;5080219;28;957;-37
2022/04/03 07:19:06;;;;;;;;;;;21.40;47.50;;;;;;5080310;28;1009;-37
2022/04/03 07:21:33;;;;;;;;;;;21.40;47.50;;;;;;5079303;28;985;-37
2022/04/03 07:24:00;;;;;;;;;;;21.40;47.60;;;;;;5079811;28;1048;-37
2022/04/03 07:26:27;;;;;;;;;;;21.40;47.50;;;;;;5079712;28;1019;-37
2022/04/03 07:28:55;;;;;;;;;;;21.40;47.70;;;;;;5079047;28;997;-38
2022/04/03 07:31:22;;;;;;;;;;;21.40;47.50;;;;;;5078247;28;1907;-38
2022/04/03 07:33:48;;;;;;;;;;;21.40;47.50;;;;;;5078554;28;972;-38
2022/04/03 07:36:16;;;;;;;;;;;21.50;47.40;;;;;;5078470;28;942;-39
2022/04/03 07:38:42;;;;;;;;;;;21.40;47.50;;;;;;5078346;28;977;-39
2022/04/03 07:41:09;;;;;;;;;;;21.40;47.60;;;;;;5078917;28;1007;-36
2022/04/03 07:43:36;;;;;;;;;;;21.40;47.70;;;;;;5077712;28;1140;-37
2022/04/03 07:46:04;;;;;;;;;;;21.40;47.70;;;;;;5077560;28;965;-37
2022/04/03 07:48:31;;;;;;;;;;;21.30;47.60;;;;;;5078920;28;991;-37
2022/04/03 07:50:58;;;;;;;;;;;21.40;47.70;;;;;;5077412;28;1902;-38
2022/04/03 07:53:24;;;;;;;;;;;21.40;47.60;;;;;;5078177;28;992;-38
2022/04/03 07:55:51;;;;;;;;;;;21.50;47.40;;;;;;5078635;28;996;-37
2022/04/03 07:58:18;;;;;;;;;;;21.50;47.40;;;;;;5078656;28;1007;-37
2022/04/03 08:00:46;;;;;;;;;;;21.50;47.50;;;;;;5077239;28;1050;-38
2022/04/03 08:03:14;;;;;;;;;;;21.50;47.40;;;;;;5077209;28;1064;-38
2022/04/03 08:05:41;;;;;;;;;;;21.50;47.40;;;;;;5078738;28;949;-38
2022/04/03 08:08:08;;;;;;;;;;;21.60;47.30;;;;;;5075791;28;1000;-38
2022/04/03 08:10:34;;;;;;;;;;;21.50;47.30;;;;;;5077858;28;1980;-37
2022/04/03 08:13:01;;;;;;;;;;;21.50;47.30;;;;;;5076475;28;979;-37
2022/04/03 08:15:28;;;;;;;;;;;21.60;47.40;;;;;;5076713;28;960;-37
2022/04/03 08:17:55;;;;;;;;;;;21.50;47.40;;;;;;5078178;28;1024;-38
2022/04/03 08:20:23;;;;;;;;;;;21.50;47.50;;;;;;5077538;28;1031;-38
2022/04/03 08:22:50;;;;;;;;;;;21.50;47.50;;;;;;5076739;28;1026;-37
2022/04/03 08:25:17;;;;;;;;;;;21.50;47.40;;;;;;5075694;28;1776;-39
2022/04/03 08:27:44;;;;;;;;;;;21.50;47.50;;;;;;5072773;28;1028;-39
2022/04/03 08:30:13;;;;;;;;;;;21.50;47.40;;;;;;5072168;28;1763;-37
2022/04/03 08:32:39;;;;;;;;;;;21.40;47.50;;;;;;5071182;28;1898;-38
2022/04/03 08:35:07;;;;;;;;;;;21.50;47.70;;;;;;5071432;28;960;-39
2022/04/03 08:37:35;;;;;;;;;;;21.40;47.50;;;;;;5071747;28;925;-37
2022/04/03 08:40:03;;;;;;;;;;;21.40;47.50;;;;;;5070386;28;969;-39
2022/04/03 08:42:30;;;;;;;;;;;21.50;47.40;;;;;;5073359;28;1174;-37
2022/04/03 08:44:57;;;;;;;;;;;21.50;47.50;;;;;;5074355;28;1004;-37
2022/04/03 08:47:25;;;;;;;;;;;21.60;47.40;;;;;;5074802;28;1009;-39
2022/04/03 08:49:51;;;;;;;;;;;21.60;47.30;;;;;;5073850;28;964;-37
2022/04/03 08:52:19;;;;;;;;;;;21.70;47.30;;;;;;5073288;28;1894;-39
2022/04/03 08:54:47;;;;;;;;;;;21.70;47.30;;;;;;5074547;28;920;-37
2022/04/03 08:57:14;;;;;;;;;;;21.70;47.30;;;;;;5073148;28;972;-38
2022/04/03 08:59:41;;;;;;;;;;;21.70;47.20;;;;;;5073674;28;1012;-37
2022/04/03 09:02:08;;;;;;;;;;;21.80;47.20;;;;;;5073189;28;949;-39
2022/04/03 09:04:37;;;;;;;;;;;21.80;47.40;;;;;;5087749;28;1659;-37
2022/04/03 09:07:04;;;;;;;;;;;21.80;47.20;;;;;;5093967;28;1012;-38
2022/04/03 09:09:30;;;;;;;;;;;21.80;47.20;;;;;;5093235;28;988;-44
2022/04/03 09:12:08;;;;;;;;;;;21.90;47.10;;;;;;5093969;28;1901;-44
2022/04/03 09:14:35;;;;;;;;;;;21.90;47.20;;;;;;5094775;28;956;-42
2022/04/03 09:17:03;;;;;;;;;;;21.90;47.20;;;;;;5094799;28;924;-44
2022/04/03 09:19:32;;;;;;;;;;;21.90;47.10;;;;;;5094301;28;980;-45
2022/04/03 09:21:59;;;;;;;;;;;21.90;47.10;;;;;;5094054;28;980;-43
2022/04/03 09:24:25;;;;;;;;;;;21.90;47.20;;;;;;5094439;28;1085;-43
2022/04/03 09:26:58;;;;;;;;;;;21.90;47.10;;;;;;5095085;28;980;-44
2022/04/03 09:29:26;;;;;;;;;;;21.90;47.20;;;;;;5096490;28;1012;-45
2022/04/03 09:31:59;;;;;;;;;;;21.90;47.10;;;;;;5097236;28;1910;-45
2022/04/03 09:34:26;;;;;;;;;;;21.90;47.10;;;;;;5097072;28;1127;-44
2022/04/03 09:36:57;;;;;;;;;;;21.90;47.00;;;;;;5097725;28;940;-45
2022/04/03 09:39:26;;;;;;;;;;;21.90;47.10;;;;;;5097714;28;1098;-44
2022/04/03 09:41:57;;;;;;;;;;;21.90;47.10;;;;;;5097555;28;941;-43
2022/04/03 09:44:30;;;;;;;;;;;21.90;47.00;;;;;;5096592;28;1131;-43
2022/04/03 09:47:16;;;;;;;;;;;21.90;47.00;;;;;;5097306;28;1019;-45
2022/04/03 09:49:45;;;;;;;;;;;21.90;47.10;;;;;;5096979;28;932;-37
2022/04/03 09:52:12;;;;;;;;;;;21.90;47.10;;;;;;5096738;28;1902;-38
2022/04/03 09:54:39;;;;;;;;;;;21.90;48.20;;;;;;5096718;28;972;-38
2022/04/03 09:57:23;;;;;;;;;;;21.90;47.10;;;;;;5096874;28;983;-37
2022/04/03 09:59:53;;;;;;;;;;;21.90;47.00;;;;;;5096539;28;1011;-37
2022/04/03 10:02:20;;;;;;;;;;;21.90;47.00;;;;;;5095363;28;1011;-38
2022/04/03 10:04:47;;;;;;;;;;;21.90;47.00;;;;;;5095647;28;1862;-37
2022/04/03 10:07:14;;;;;;;;;;;21.90;47.00;;;;;;5095873;28;1783;-37
2022/04/03 10:09:45;;;;;;;;;;;21.90;47.00;;;;;;5095833;28;1119;-37
2022/04/03 10:12:15;;;;;;;;;;;21.90;46.90;;;;;;5094760;28;1906;-37
2022/04/03 10:14:43;;;;;;;;;;;21.90;47.00;;;;;;5095233;28;1001;-38
2022/04/03 10:17:11;;;;;;;;;;;21.90;47.00;;;;;;5096236;28;927;-38
2022/04/03 10:19:38;;;;;;;;;;;21.90;47.00;;;;;;5093777;28;984;-37
2022/04/03 10:22:06;;;;;;;;;;;21.90;47.00;;;;;;5092956;28;936;-36
2022/04/03 10:24:35;;;;;;;;;;;21.90;47.00;;;;;;5092593;28;1015;-37
2022/04/03 10:27:05;;;;;;;;;;;22.00;47.00;;;;;;5091964;28;1007;-38
2022/04/03 10:29:32;;;;;;;;;;;22.00;46.90;;;;;;5092888;28;989;-39
2022/04/03 10:32:03;;;;;;;;;;;21.90;47.00;;;;;;5092910;28;1976;-39
2022/04/03 10:34:32;;;;;;;;;;;21.90;47.00;;;;;;5092764;28;901;-38
2022/04/03 10:36:59;;;;;;;;;;;21.90;47.00;;;;;;5094125;28;952;-38
2022/04/03 10:39:27;;;;;;;;;;;21.90;47.00;;;;;;5093752;28;985;-38
2022/04/03 10:42:09;;;;;;;;;;;22.00;46.90;;;;;;5092263;28;1008;-37
2022/04/03 10:44:36;;;;;;;;;;;22.00;47.10;;;;;;5092910;28;1605;-38
2022/04/03 10:47:19;;;;;;;;;;;22.00;47.00;;;;;;5095480;28;1483;-38
2022/04/03 10:49:49;;;;;;;;;;;22.00;46.80;;;;;;5099671;28;1068;-42
2022/04/03 10:52:24;;;;;;;;;;;22.00;47.00;;;;;;5098224;28;1910;-39
2022/04/03 10:54:52;;;;;;;;;;;22.10;46.40;;;;;;5098700;28;1043;-38
2022/04/03 10:57:35;;;;;;;;;;;22.00;41.50;;;;;;5098343;28;969;-37
2022/04/03 11:00:26;;;;;;;;;;;21.90;43.80;;;;;;5097527;28;940;-37
2022/04/03 11:02:54;;;;;;;;;;;21.90;45.10;;;;;;5083353;28;1990;-39
2022/04/03 11:05:41;;;;;;;;;;;22.00;45.30;;;;;;5096854;28;992;-38
2022/04/03 11:08:17;;;;;;;;;;;22.00;45.40;;;;;;5092050;28;1447;-37
2022/04/03 11:10:45;;;;;;;;;;;22.00;46.10;;;;;;5096597;28;1046;-38
2022/04/03 11:13:14;;;;;;;;;;;22.00;46.30;;;;;;5097604;28;1905;-39
2022/04/03 11:15:43;;;;;;;;;;;22.00;46.50;;;;;;5096949;28;1019;-38
2022/04/03 11:18:25;;;;;;;;;;;22.00;46.70;;;;;;5098105;28;974;-37
2022/04/03 11:21:04;;;;;;;;;;;22.10;46.80;;;;;;5097567;28;1001;-38
2022/04/03 11:23:35;;;;;;;;;;;22.10;47.20;;;;;;5096454;28;928;-37
2022/04/03 11:26:02;;;;;;;;;;;22.10;46.90;;;;;;5098040;28;980;-37
2022/04/03 11:28:29;;;;;;;;;;;22.10;47.10;;;;;;5097682;28;1000;-37
2022/04/03 11:30:56;;;;;;;;;;;22.20;47.20;;;;;;5097997;28;972;-37
2022/04/03 11:33:23;;;;;;;;;;;22.20;47.20;;;;;;5097191;28;1902;-38
2022/04/03 11:35:50;;;;;;;;;;;22.20;47.20;;;;;;5097779;28;984;-37
2022/04/03 11:38:17;;;;;;;;;;;22.20;47.10;;;;;;5095547;28;905;-38
2022/04/03 11:40:46;;;;;;;;;;;22.20;47.10;;;;;;5097040;28;993;-37
2022/04/03 11:43:16;;;;;;;;;;;22.20;47.10;;;;;;5095727;28;1002;-39
2022/04/03 11:45:51;;;;;;;;;;;22.20;47.20;;;;;;5096578;28;1008;-38
2022/04/03 11:48:19;;;;;;;;;;;22.20;47.30;;;;;;5097331;28;1039;-38
2022/04/03 11:50:46;;;;;;;;;;;22.20;47.30;;;;;;5096803;28;984;-37
2022/04/03 11:53:13;;;;;;;;;;;22.30;47.40;;;;;;5096743;28;1906;-37
2022/04/03 11:55:40;;;;;;;;;;;22.20;47.30;;;;;;5096158;28;1018;-37
2022/04/03 11:58:08;;;;;;;;;;;22.10;47.30;;;;;;5094530;28;1021;-39
2022/04/03 12:00:35;;;;;;;;;;;22.20;47.40;;;;;;5095773;28;1011;-38
2022/04/03 12:03:03;;;;;;;;;;;22.20;47.40;;;;;;5097666;28;945;-39
2022/04/03 12:05:30;;;;;;;;;;;22.20;47.30;;;;;;5097772;28;977;-42
2022/04/03 12:08:01;;;;;;;;;;;22.30;47.40;;;;;;5097045;28;1016;-37
2022/04/03 12:10:28;;;;;;;;;;;22.30;47.20;;;;;;5097722;28;1009;-38
2022/04/03 12:12:58;;;;;;;;;;;22.30;46.50;;;;;;5097637;28;1914;-37
2022/04/03 12:15:29;;;;;;;;;;;22.30;46.50;;;;;;5096940;28;947;-41
2022/04/03 12:17:56;;;;;;;;;;;22.30;46.70;;;;;;5097201;28;896;-40
2022/04/03 12:20:23;;;;;;;;;;;22.20;46.50;;;;;;5096660;28;1028;-37
2022/04/03 12:22:50;;;;;;;;;;;22.20;47.00;;;;;;5095873;28;1006;-40
2022/04/03 12:25:17;;;;;;;;;;;22.30;47.60;;;;;;5096228;28;944;-37
2022/04/03 12:27:44;;;;;;;;;;;22.30;48.20;;;;;;5096886;28;1423;-37
2022/04/03 12:30:11;;;;;;;;;;;22.30;47.90;;;;;;5095862;28;861;-41
2022/04/03 12:32:41;;;;;;;;;;;22.30;47.90;;;;;;5095481;28;1906;-43
2022/04/03 12:35:09;;;;;;;;;;;22.40;47.40;;;;;;5096071;28;967;-40
2022/04/03 12:37:37;;;;;;;;;;;22.30;47.90;;;;;;5095616;28;1163;-39
2022/04/03 12:40:06;;;;;;;;;;;22.30;48.00;;;;;;5095869;28;1040;-40
2022/04/03 12:42:33;;;;;;;;;;;22.30;47.50;;;;;;5093552;28;1122;-40
2022/04/03 12:45:01;;;;;;;;;;;22.30;47.40;;;;;;5093405;28;941;-38
2022/04/03 12:47:33;;;;;;;;;;;22.20;47.30;;;;;;5093101;28;936;-39
2022/04/03 12:50:15;;;;;;;;;;;22.20;47.40;;;;;;5094853;28;868;-41
2022/04/03 12:52:43;;;;;;;;;;;22.10;48.30;;;;;;5094640;28;1926;-39
2022/04/03 12:55:24;;;;;;;;;;;22.10;47.10;;;;;;5096422;28;944;-40
2022/04/03 13:00:53;;;;;;;;;;;22.10;47.10;;;;;;5096533;28;724;-39
2022/04/03 13:03:23;;;;;;;;;;;22.10;47.10;;;;;;5097139;28;1018;-41
2022/04/03 13:05:54;;;;;;;;;;;22.10;47.00;;;;;;5096092;28;953;-39
2022/04/03 13:08:21;;;;;;;;;;;22.10;47.00;;;;;;5096180;28;1144;-39
2022/04/03 13:10:51;;;;;;;;;;;22.10;46.90;;;;;;5096264;28;1011;-41
2022/04/03 13:13:19;;;;;;;;;;;22.20;47.00;;;;;;5096028;28;1983;-40
2022/04/03 13:15:46;;;;;;;;;;;22.20;47.00;;;;;;5095865;28;928;-40
2022/04/03 13:18:13;;;;;;;;;;;22.10;47.00;;;;;;5096037;28;986;-40
2022/04/03 13:20:40;;;;;;;;;;;22.10;47.00;;;;;;5096888;28;961;-38
2022/04/03 13:23:08;;;;;;;;;;;22.20;47.00;;;;;;5096449;28;976;-39
2022/04/03 13:25:35;;;;;;;;;;;22.20;47.00;;;;;;5095913;28;1039;-39
2022/04/03 13:28:02;;;;;;;;;;;22.20;47.10;;;;;;5094963;28;1048;-40
2022/04/03 13:30:33;;;;;;;;;;;22.30;47.00;;;;;;5095051;28;1037;-39
2022/04/03 13:32:59;;;;;;;;;;;22.30;47.00;;;;;;5096301;28;1963;-38
2022/04/03 13:35:26;;;;;;;;;;;22.30;46.90;;;;;;5095698;28;1019;-42
2022/04/03 13:37:53;;;;;;;;;;;22.30;46.90;;;;;;5095780;28;1053;-40
2022/04/03 13:40:21;;;;;;;;;;;22.20;46.80;;;;;;5095069;28;1036;-39
2022/04/03 13:42:48;;;;;;;;;;;22.20;46.80;;;;;;5094854;28;1188;-39
2022/04/03 13:45:14;;;;;;;;;;;22.20;46.80;;;;;;5095260;28;944;-40
2022/04/03 13:47:42;;;;;;;;;;;22.20;46.80;;;;;;5094953;28;995;-41
2022/04/03 13:50:09;;;;;;;;;;;22.20;46.80;;;;;;5094533;28;1032;-39
2022/04/03 13:52:37;;;;;;;;;;;22.20;46.80;;;;;;5093912;28;1975;-40
2022/04/03 13:55:04;;;;;;;;;;;22.20;46.90;;;;;;5092586;28;896;-40
2022/04/03 13:57:32;;;;;;;;;;;22.20;46.80;;;;;;5092458;28;1873;-41
2022/04/03 13:59:59;;;;;;;;;;;22.20;46.80;;;;;;5092438;28;936;-38
2022/04/03 14:02:26;;;;;;;;;;;22.10;46.90;;;;;;5093335;28;944;-39
2022/04/03 14:04:53;;;;;;;;;;;22.10;46.90;;;;;;5092693;28;968;-38
2022/04/03 14:07:19;;;;;;;;;;;22.10;46.90;;;;;;5093672;28;1036;-38
2022/04/03 14:09:46;;;;;;;;;;;22.10;47.10;;;;;;5092911;28;916;-38
2022/04/03 14:12:13;;;;;;;;;;;22.10;47.00;;;;;;5093573;28;1022;-39
2022/04/03 14:14:41;;;;;;;;;;;22.20;48.10;;;;;;5095364;28;1979;-40
2022/04/03 14:17:08;;;;;;;;;;;22.40;46.80;;;;;;5093971;28;1082;-40
2022/04/03 14:19:35;;;;;;;;;;;22.40;46.70;;;;;;5093556;28;861;-37
2022/04/03 14:22:01;;;;;;;;;;;22.40;47.00;;;;;;5093330;28;937;-37
2022/04/03 14:24:28;;;;;;;;;;;22.50;47.20;;;;;;5094571;28;980;-38
2022/04/03 14:26:55;;;;;;;;;;;22.50;47.70;;;;;;5094021;28;999;-38
2022/04/03 14:29:22;;;;;;;;;;;22.50;47.50;;;;;;5095269;28;1039;-37
2022/04/03 14:31:50;;;;;;;;;;;22.50;48.60;;;;;;5093016;28;1012;-38
2022/04/03 14:34:16;;;;;;;;;;;22.60;47.40;;;;;;5093981;28;1902;-38
2022/04/03 14:36:43;;;;;;;;;;;22.60;47.40;;;;;;5093962;28;952;-37
2022/04/03 14:39:10;;;;;;;;;;;22.60;47.20;;;;;;5093412;28;1094;-38
2022/04/03 14:41:37;;;;;;;;;;;22.60;47.40;;;;;;5093165;28;956;-37
2022/04/03 14:44:05;;;;;;;;;;;22.60;47.40;;;;;;5091656;28;1030;-39
2022/04/03 14:46:32;;;;;;;;;;;22.60;47.60;;;;;;5091185;28;1020;-40